sensor_id;sensor_type;location;lat;lon;timestamp;P1;durP1;ratioP1;P2;durP2;ratioP2
26820;SDS011;37186;51.394;5.454;2023-03-01T00:01:17;2.23;;;2.23;;
26820;SDS011;37186;51.394;5.454;2023-03-01T00:04:20;2.50;;;2.50;;
26820;SDS011;37186;51.394;5.454;2023-03-01T00:07:20;2.60;;;2.60;;
26820;SDS011;37186;51.394;5.454;2023-03-01T00:10:21;2.40;;;2.40;;
26820;SDS011;37186;51.394;5.454;2023-03-01T00:13:21;2.40;;;2.40;;
26820;SDS011;37186;51.394;5.454;2023-03-01T00:16:23;2.50;;;2.50;;
26820;SDS011;37186;51.394;5.454;2023-03-01T00:19:26;2.30;;;2.30;;
26820;SDS011;37186;51.394;5.454;2023-03-01T00:22:27;2.30;;;2.30;;
26820;SDS011;37186;51.394;5.454;2023-03-01T00:25:28;2.10;;;2.10;;
26820;SDS011;37186;51.394;5.454;2023-03-01T00:28:28;2.30;;;2.30;;
26820;SDS011;37186;51.394;5.454;2023-03-01T00:31:30;2.40;;;2.40;;
26820;SDS011;37186;51.394;5.454;2023-03-01T00:34:31;2.40;;;2.40;;
26820;SDS011;37186;51.394;5.454;2023-03-01T00:37:32;2.30;;;2.30;;
26820;SDS011;37186;51.394;5.454;2023-03-01T00:40:33;2.27;;;2.27;;
26820;SDS011;37186;51.394;5.454;2023-03-01T00:43:35;2.13;;;2.13;;
26820;SDS011;37186;51.394;5.454;2023-03-01T00:46:39;2.30;;;2.30;;
26820;SDS011;37186;51.394;5.454;2023-03-01T00:49:39;2.30;;;2.30;;
26820;SDS011;37186;51.394;5.454;2023-03-01T00:52:40;2.33;;;2.33;;
26820;SDS011;37186;51.394;5.454;2023-03-01T00:55:40;2.30;;;2.30;;
26820;SDS011;37186;51.394;5.454;2023-03-01T00:58:41;2.50;;;2.50;;
26820;SDS011;37186;51.394;5.454;2023-03-01T01:01:42;2.23;;;2.23;;
26820;SDS011;37186;51.394;5.454;2023-03-01T01:04:42;2.30;;;2.30;;
26820;SDS011;37186;51.394;5.454;2023-03-01T01:07:44;2.30;;;2.30;;
26820;SDS011;37186;51.394;5.454;2023-03-01T01:10:45;2.30;;;2.30;;
26820;SDS011;37186;51.394;5.454;2023-03-01T01:13:46;2.20;;;2.20;;
26820;SDS011;37186;51.394;5.454;2023-03-01T01:16:48;2.30;;;2.30;;
26820;SDS011;37186;51.394;5.454;2023-03-01T01:19:48;2.40;;;2.40;;
26820;SDS011;37186;51.394;5.454;2023-03-01T01:22:49;2.20;;;2.20;;
26820;SDS011;37186;51.394;5.454;2023-03-01T01:25:51;2.40;;;2.40;;
26820;SDS011;37186;51.394;5.454;2023-03-01T01:28:51;2.17;;;2.17;;
26820;SDS011;37186;51.394;5.454;2023-03-01T01:31:53;2.40;;;2.40;;
26820;SDS011;37186;51.394;5.454;2023-03-01T01:34:53;2.40;;;2.40;;
26820;SDS011;37186;51.394;5.454;2023-03-01T01:37:54;2.30;;;2.30;;
26820;SDS011;37186;51.394;5.454;2023-03-01T01:40:54;2.27;;;2.27;;
26820;SDS011;37186;51.394;5.454;2023-03-01T01:47:20;2.30;;;2.30;;
26820;SDS011;37186;51.394;5.454;2023-03-01T01:50:22;2.30;;;2.30;;
26820;SDS011;37186;51.394;5.454;2023-03-01T01:53:23;2.20;;;2.20;;
26820;SDS011;37186;51.394;5.454;2023-03-01T01:56:25;2.10;;;2.10;;
26820;SDS011;37186;51.394;5.454;2023-03-01T01:59:28;2.20;;;2.20;;
26820;SDS011;37186;51.394;5.454;2023-03-01T02:02:31;2.40;;;2.40;;
26820;SDS011;37186;51.394;5.454;2023-03-01T02:05:50;2.50;;;2.50;;
26820;SDS011;37186;51.394;5.454;2023-03-01T02:08:59;2.30;;;2.30;;
26820;SDS011;37186;51.394;5.454;2023-03-01T02:12:04;2.20;;;2.20;;
26820;SDS011;37186;51.394;5.454;2023-03-01T02:15:06;2.20;;;2.20;;
26820;SDS011;37186;51.394;5.454;2023-03-01T02:18:07;2.20;;;2.20;;
26820;SDS011;37186;51.394;5.454;2023-03-01T02:21:30;2.20;;;2.20;;
26820;SDS011;37186;51.394;5.454;2023-03-01T02:24:49;2.40;;;2.40;;
26820;SDS011;37186;51.394;5.454;2023-03-01T02:31:16;2.33;;;2.33;;
26820;SDS011;37186;51.394;5.454;2023-03-01T02:34:37;2.20;;;2.20;;
26820;SDS011;37186;51.394;5.454;2023-03-01T02:37:39;2.30;;;2.30;;
26820;SDS011;37186;51.394;5.454;2023-03-01T02:40:41;2.30;;;2.30;;
26820;SDS011;37186;51.394;5.454;2023-03-01T02:43:42;2.20;;;2.20;;
26820;SDS011;37186;51.394;5.454;2023-03-01T02:46:47;2.10;;;2.10;;
26820;SDS011;37186;51.394;5.454;2023-03-01T02:49:52;2.30;;;2.30;;
26820;SDS011;37186;51.394;5.454;2023-03-01T02:53:40;2.30;;;2.30;;
26820;SDS011;37186;51.394;5.454;2023-03-01T02:56:23;2.23;;;2.23;;
26820;SDS011;37186;51.394;5.454;2023-03-01T02:59:25;2.20;;;2.20;;
26820;SDS011;37186;51.394;5.454;2023-03-01T03:02:29;2.40;;;2.40;;
26820;SDS011;37186;51.394;5.454;2023-03-01T03:05:36;2.30;;;2.30;;
26820;SDS011;37186;51.394;5.454;2023-03-01T03:08:36;2.30;;;2.30;;
26820;SDS011;37186;51.394;5.454;2023-03-01T03:11:37;2.40;;;2.40;;
26820;SDS011;37186;51.394;5.454;2023-03-01T03:14:40;2.20;;;2.20;;
26820;SDS011;37186;51.394;5.454;2023-03-01T03:17:41;2.10;;;2.10;;
26820;SDS011;37186;51.394;5.454;2023-03-01T03:20:42;2.30;;;2.30;;
26820;SDS011;37186;51.394;5.454;2023-03-01T03:23:44;2.33;;;2.33;;
26820;SDS011;37186;51.394;5.454;2023-03-01T03:26:44;2.10;;;2.10;;
26820;SDS011;37186;51.394;5.454;2023-03-01T03:29:45;2.40;;;2.40;;
26820;SDS011;37186;51.394;5.454;2023-03-01T03:32:47;2.30;;;2.30;;
26820;SDS011;37186;51.394;5.454;2023-03-01T03:35:52;2.30;;;2.30;;
26820;SDS011;37186;51.394;5.454;2023-03-01T03:38:52;2.20;;;2.20;;
26820;SDS011;37186;51.394;5.454;2023-03-01T03:41:53;2.30;;;2.30;;
26820;SDS011;37186;51.394;5.454;2023-03-01T03:44:54;2.40;;;2.40;;
26820;SDS011;37186;51.394;5.454;2023-03-01T03:47:54;2.30;;;2.30;;
26820;SDS011;37186;51.394;5.454;2023-03-01T03:50:55;2.40;;;2.40;;
26820;SDS011;37186;51.394;5.454;2023-03-01T03:53:56;2.40;;;2.40;;
26820;SDS011;37186;51.394;5.454;2023-03-01T03:56:57;2.30;;;2.30;;
26820;SDS011;37186;51.394;5.454;2023-03-01T03:59:57;2.20;;;2.20;;
26820;SDS011;37186;51.394;5.454;2023-03-01T04:02:58;2.30;;;2.30;;
26820;SDS011;37186;51.394;5.454;2023-03-01T04:05:58;2.40;;;2.40;;
26820;SDS011;37186;51.394;5.454;2023-03-01T04:09:00;2.40;;;2.40;;
26820;SDS011;37186;51.394;5.454;2023-03-01T04:12:02;2.30;;;2.30;;
26820;SDS011;37186;51.394;5.454;2023-03-01T04:15:03;2.30;;;2.30;;
26820;SDS011;37186;51.394;5.454;2023-03-01T04:18:13;2.40;;;2.40;;
26820;SDS011;37186;51.394;5.454;2023-03-01T04:21:15;2.30;;;2.30;;
26820;SDS011;37186;51.394;5.454;2023-03-01T04:24:16;2.50;;;2.50;;
26820;SDS011;37186;51.394;5.454;2023-03-01T04:27:16;2.40;;;2.40;;
26820;SDS011;37186;51.394;5.454;2023-03-01T04:30:17;2.30;;;2.30;;
26820;SDS011;37186;51.394;5.454;2023-03-01T04:33:18;2.50;;;2.50;;
26820;SDS011;37186;51.394;5.454;2023-03-01T04:36:19;2.30;;;2.30;;
26820;SDS011;37186;51.394;5.454;2023-03-01T04:39:21;2.40;;;2.40;;
26820;SDS011;37186;51.394;5.454;2023-03-01T04:42:22;2.27;;;2.27;;
26820;SDS011;37186;51.394;5.454;2023-03-01T04:45:22;2.30;;;2.30;;
26820;SDS011;37186;51.394;5.454;2023-03-01T04:48:23;2.40;;;2.40;;
26820;SDS011;37186;51.394;5.454;2023-03-01T04:51:24;2.33;;;2.33;;
26820;SDS011;37186;51.394;5.454;2023-03-01T04:54:24;2.40;;;2.40;;
26820;SDS011;37186;51.394;5.454;2023-03-01T04:57:25;2.17;;;2.17;;
26820;SDS011;37186;51.394;5.454;2023-03-01T05:00:25;2.30;;;2.30;;
26820;SDS011;37186;51.394;5.454;2023-03-01T05:03:26;2.20;;;2.20;;
26820;SDS011;37186;51.394;5.454;2023-03-01T05:06:28;2.40;;;2.40;;
26820;SDS011;37186;51.394;5.454;2023-03-01T05:09:28;2.30;;;2.30;;
26820;SDS011;37186;51.394;5.454;2023-03-01T05:12:29;2.30;;;2.30;;
26820;SDS011;37186;51.394;5.454;2023-03-01T05:15:30;2.20;;;2.20;;
26820;SDS011;37186;51.394;5.454;2023-03-01T05:18:31;2.30;;;2.30;;
26820;SDS011;37186;51.394;5.454;2023-03-01T05:21:33;2.30;;;2.30;;
26820;SDS011;37186;51.394;5.454;2023-03-01T05:24:34;2.30;;;2.30;;
26820;SDS011;37186;51.394;5.454;2023-03-01T05:27:35;2.30;;;2.30;;
26820;SDS011;37186;51.394;5.454;2023-03-01T05:30:36;2.30;;;2.30;;
26820;SDS011;37186;51.394;5.454;2023-03-01T05:33:39;2.10;;;2.10;;
26820;SDS011;37186;51.394;5.454;2023-03-01T05:36:40;2.20;;;2.20;;
26820;SDS011;37186;51.394;5.454;2023-03-01T05:39:41;2.30;;;2.30;;
26820;SDS011;37186;51.394;5.454;2023-03-01T05:42:48;2.10;;;2.10;;
26820;SDS011;37186;51.394;5.454;2023-03-01T05:45:54;2.40;;;2.40;;
26820;SDS011;37186;51.394;5.454;2023-03-01T05:48:57;2.30;;;2.30;;
26820;SDS011;37186;51.394;5.454;2023-03-01T05:51:58;2.40;;;2.40;;
26820;SDS011;37186;51.394;5.454;2023-03-01T05:54:58;2.30;;;2.30;;
26820;SDS011;37186;51.394;5.454;2023-03-01T05:57:59;2.30;;;2.30;;
26820;SDS011;37186;51.394;5.454;2023-03-01T06:01:02;2.40;;;2.40;;
26820;SDS011;37186;51.394;5.454;2023-03-01T06:04:03;2.40;;;2.40;;
26820;SDS011;37186;51.394;5.454;2023-03-01T06:07:04;2.43;;;2.43;;
26820;SDS011;37186;51.394;5.454;2023-03-01T06:10:05;2.40;;;2.40;;
26820;SDS011;37186;51.394;5.454;2023-03-01T06:13:06;2.40;;;2.40;;
26820;SDS011;37186;51.394;5.454;2023-03-01T06:16:07;2.30;;;2.30;;
26820;SDS011;37186;51.394;5.454;2023-03-01T06:19:08;2.50;;;2.50;;
26820;SDS011;37186;51.394;5.454;2023-03-01T06:22:08;2.53;;;2.53;;
26820;SDS011;37186;51.394;5.454;2023-03-01T06:25:09;2.50;;;2.50;;
26820;SDS011;37186;51.394;5.454;2023-03-01T06:28:12;2.40;;;2.40;;
26820;SDS011;37186;51.394;5.454;2023-03-01T06:31:13;2.40;;;2.40;;
26820;SDS011;37186;51.394;5.454;2023-03-01T06:34:13;2.40;;;2.40;;
26820;SDS011;37186;51.394;5.454;2023-03-01T06:37:14;2.37;;;2.37;;
26820;SDS011;37186;51.394;5.454;2023-03-01T06:40:15;2.20;;;2.20;;
26820;SDS011;37186;51.394;5.454;2023-03-01T06:43:16;2.20;;;2.20;;
26820;SDS011;37186;51.394;5.454;2023-03-01T06:46:16;2.20;;;2.20;;
26820;SDS011;37186;51.394;5.454;2023-03-01T06:49:17;2.27;;;2.27;;
26820;SDS011;37186;51.394;5.454;2023-03-01T06:52:17;2.20;;;2.20;;
26820;SDS011;37186;51.394;5.454;2023-03-01T06:55:18;2.20;;;2.20;;
26820;SDS011;37186;51.394;5.454;2023-03-01T06:58:18;2.20;;;2.20;;
26820;SDS011;37186;51.394;5.454;2023-03-01T07:01:19;2.10;;;2.10;;
26820;SDS011;37186;51.394;5.454;2023-03-01T07:04:19;2.30;;;2.30;;
26820;SDS011;37186;51.394;5.454;2023-03-01T07:07:20;2.30;;;2.30;;
26820;SDS011;37186;51.394;5.454;2023-03-01T07:10:21;2.20;;;2.20;;
26820;SDS011;37186;51.394;5.454;2023-03-01T07:13:21;2.20;;;2.20;;
26820;SDS011;37186;51.394;5.454;2023-03-01T07:16:22;2.30;;;2.30;;
26820;SDS011;37186;51.394;5.454;2023-03-01T07:19:23;2.20;;;2.20;;
26820;SDS011;37186;51.394;5.454;2023-03-01T07:22:24;2.30;;;2.30;;
26820;SDS011;37186;51.394;5.454;2023-03-01T07:25:24;2.20;;;2.20;;
26820;SDS011;37186;51.394;5.454;2023-03-01T07:28:25;2.10;;;2.10;;
26820;SDS011;37186;51.394;5.454;2023-03-01T07:31:26;2.10;;;2.10;;
26820;SDS011;37186;51.394;5.454;2023-03-01T07:34:29;2.30;;;2.30;;
26820;SDS011;37186;51.394;5.454;2023-03-01T07:37:30;2.37;;;2.37;;
26820;SDS011;37186;51.394;5.454;2023-03-01T07:40:30;2.30;;;2.30;;
26820;SDS011;37186;51.394;5.454;2023-03-01T07:43:31;2.20;;;2.20;;
26820;SDS011;37186;51.394;5.454;2023-03-01T07:46:32;2.20;;;2.20;;
26820;SDS011;37186;51.394;5.454;2023-03-01T07:49:33;2.30;;;2.30;;
26820;SDS011;37186;51.394;5.454;2023-03-01T07:52:33;2.40;;;2.40;;
26820;SDS011;37186;51.394;5.454;2023-03-01T07:55:34;2.20;;;2.20;;
26820;SDS011;37186;51.394;5.454;2023-03-01T07:58:35;2.20;;;2.20;;
26820;SDS011;37186;51.394;5.454;2023-03-01T08:01:36;2.30;;;2.30;;
26820;SDS011;37186;51.394;5.454;2023-03-01T08:04:37;2.17;;;2.17;;
26820;SDS011;37186;51.394;5.454;2023-03-01T08:07:37;2.40;;;2.40;;
26820;SDS011;37186;51.394;5.454;2023-03-01T08:10:38;2.20;;;2.20;;
26820;SDS011;37186;51.394;5.454;2023-03-01T08:13:39;2.10;;;2.10;;
26820;SDS011;37186;51.394;5.454;2023-03-01T08:16:39;2.23;;;2.23;;
26820;SDS011;37186;51.394;5.454;2023-03-01T08:19:40;2.20;;;2.20;;
26820;SDS011;37186;51.394;5.454;2023-03-01T08:22:40;2.30;;;2.30;;
26820;SDS011;37186;51.394;5.454;2023-03-01T08:25:41;2.30;;;2.30;;
26820;SDS011;37186;51.394;5.454;2023-03-01T08:28:42;2.30;;;2.30;;
26820;SDS011;37186;51.394;5.454;2023-03-01T08:31:43;2.20;;;2.20;;
26820;SDS011;37186;51.394;5.454;2023-03-01T08:34:46;2.30;;;2.30;;
26820;SDS011;37186;51.394;5.454;2023-03-01T08:37:47;2.30;;;2.30;;
26820;SDS011;37186;51.394;5.454;2023-03-01T08:40:48;2.20;;;2.20;;
26820;SDS011;37186;51.394;5.454;2023-03-01T08:43:48;2.30;;;2.30;;
26820;SDS011;37186;51.394;5.454;2023-03-01T08:46:49;2.40;;;2.40;;
26820;SDS011;37186;51.394;5.454;2023-03-01T08:49:51;2.30;;;2.30;;
26820;SDS011;37186;51.394;5.454;2023-03-01T08:52:52;2.30;;;2.30;;
26820;SDS011;37186;51.394;5.454;2023-03-01T08:55:53;2.37;;;2.37;;
26820;SDS011;37186;51.394;5.454;2023-03-01T08:58:53;2.27;;;2.27;;
26820;SDS011;37186;51.394;5.454;2023-03-01T09:01:54;2.10;;;2.10;;
26820;SDS011;37186;51.394;5.454;2023-03-01T09:04:54;2.10;;;2.10;;
26820;SDS011;37186;51.394;5.454;2023-03-01T09:07:55;2.27;;;2.27;;
26820;SDS011;37186;51.394;5.454;2023-03-01T09:10:57;2.20;;;2.20;;
26820;SDS011;37186;51.394;5.454;2023-03-01T09:13:57;2.20;;;2.20;;
26820;SDS011;37186;51.394;5.454;2023-03-01T09:16:58;2.50;;;2.50;;
26820;SDS011;37186;51.394;5.454;2023-03-01T09:20:02;2.10;;;2.10;;
26820;SDS011;37186;51.394;5.454;2023-03-01T09:23:05;2.20;;;2.20;;
26820;SDS011;37186;51.394;5.454;2023-03-01T09:26:11;2.20;;;2.20;;
26820;SDS011;37186;51.394;5.454;2023-03-01T09:29:13;2.30;;;2.30;;
26820;SDS011;37186;51.394;5.454;2023-03-01T09:32:14;2.20;;;2.20;;
26820;SDS011;37186;51.394;5.454;2023-03-01T09:35:15;2.30;;;2.30;;
26820;SDS011;37186;51.394;5.454;2023-03-01T09:38:15;2.20;;;2.20;;
26820;SDS011;37186;51.394;5.454;2023-03-01T09:41:23;2.30;;;2.30;;
26820;SDS011;37186;51.394;5.454;2023-03-01T09:44:48;2.50;;;2.50;;
26820;SDS011;37186;51.394;5.454;2023-03-01T09:47:53;2.30;;;2.30;;
26820;SDS011;37186;51.394;5.454;2023-03-01T09:50:54;2.30;;;2.30;;
26820;SDS011;37186;51.394;5.454;2023-03-01T09:53:56;2.20;;;2.20;;
26820;SDS011;37186;51.394;5.454;2023-03-01T10:00:23;2.10;;;2.10;;
26820;SDS011;37186;51.394;5.454;2023-03-01T10:03:35;2.10;;;2.10;;
26820;SDS011;37186;51.394;5.454;2023-03-01T10:06:44;2.30;;;2.30;;
26820;SDS011;37186;51.394;5.454;2023-03-01T10:09:57;2.23;;;2.23;;
26820;SDS011;37186;51.394;5.454;2023-03-01T10:13:02;2.50;;;2.50;;
26820;SDS011;37186;51.394;5.454;2023-03-01T10:16:13;2.10;;;2.10;;
26820;SDS011;37186;51.394;5.454;2023-03-01T10:19:27;2.10;;;2.10;;
26820;SDS011;37186;51.394;5.454;2023-03-01T10:22:32;2.20;;;2.20;;
26820;SDS011;37186;51.394;5.454;2023-03-01T10:32:08;2.40;;;2.40;;
26820;SDS011;37186;51.394;5.454;2023-03-01T10:35:20;2.23;;;2.23;;
26820;SDS011;37186;51.394;5.454;2023-03-01T10:38:23;2.20;;;2.20;;
26820;SDS011;37186;51.394;5.454;2023-03-01T10:41:25;2.30;;;2.30;;
26820;SDS011;37186;51.394;5.454;2023-03-01T10:44:34;2.20;;;2.20;;
26820;SDS011;37186;51.394;5.454;2023-03-01T10:47:35;2.10;;;2.10;;
26820;SDS011;37186;51.394;5.454;2023-03-01T10:50:36;2.30;;;2.30;;
26820;SDS011;37186;51.394;5.454;2023-03-01T10:53:42;2.20;;;2.20;;
26820;SDS011;37186;51.394;5.454;2023-03-01T10:56:50;2.20;;;2.20;;
26820;SDS011;37186;51.394;5.454;2023-03-01T11:00:14;2.20;;;2.20;;
26820;SDS011;37186;51.394;5.454;2023-03-01T11:03:21;2.33;;;2.33;;
26820;SDS011;37186;51.394;5.454;2023-03-01T11:06:30;2.30;;;2.30;;
26820;SDS011;37186;51.394;5.454;2023-03-01T11:09:32;2.30;;;2.30;;
26820;SDS011;37186;51.394;5.454;2023-03-01T11:12:37;2.20;;;2.20;;
26820;SDS011;37186;51.394;5.454;2023-03-01T11:15:38;2.30;;;2.30;;
26820;SDS011;37186;51.394;5.454;2023-03-01T11:18:39;2.40;;;2.40;;
26820;SDS011;37186;51.394;5.454;2023-03-01T11:24:58;2.40;;;2.40;;
26820;SDS011;37186;51.394;5.454;2023-03-01T11:28:00;2.63;;;2.63;;
26820;SDS011;37186;51.394;5.454;2023-03-01T11:31:05;2.50;;;2.50;;
26820;SDS011;37186;51.394;5.454;2023-03-01T11:34:13;2.53;;;2.53;;
26820;SDS011;37186;51.394;5.454;2023-03-01T11:41:01;2.50;;;2.50;;
26820;SDS011;37186;51.394;5.454;2023-03-01T11:44:15;2.43;;;2.43;;
26820;SDS011;37186;51.394;5.454;2023-03-01T11:57:01;2.50;;;2.50;;
26820;SDS011;37186;51.394;5.454;2023-03-01T12:00:36;2.40;;;2.40;;
26820;SDS011;37186;51.394;5.454;2023-03-01T12:07:00;2.20;;;2.20;;
26820;SDS011;37186;51.394;5.454;2023-03-01T12:10:27;2.40;;;2.40;;
26820;SDS011;37186;51.394;5.454;2023-03-01T12:17:06;2.67;;;2.67;;
26820;SDS011;37186;51.394;5.454;2023-03-01T12:30:23;2.53;;;2.53;;
26820;SDS011;37186;51.394;5.454;2023-03-01T12:43:27;2.53;;;2.53;;
26820;SDS011;37186;51.394;5.454;2023-03-01T12:50:11;2.50;;;2.50;;
26820;SDS011;37186;51.394;5.454;2023-03-01T12:53:36;2.67;;;2.67;;
26820;SDS011;37186;51.394;5.454;2023-03-01T12:56:41;2.67;;;2.63;;
26820;SDS011;37186;51.394;5.454;2023-03-01T12:59:44;2.63;;;2.60;;
26820;SDS011;37186;51.394;5.454;2023-03-01T13:03:01;2.80;;;2.70;;
26820;SDS011;37186;51.394;5.454;2023-03-01T13:15:45;2.70;;;2.70;;
26820;SDS011;37186;51.394;5.454;2023-03-01T13:18:47;2.80;;;2.70;;
26820;SDS011;37186;51.394;5.454;2023-03-01T13:21:48;2.93;;;2.83;;
26820;SDS011;37186;51.394;5.454;2023-03-01T13:24:50;2.97;;;2.87;;
26820;SDS011;37186;51.394;5.454;2023-03-01T13:28:35;3.13;;;3.03;;
26820;SDS011;37186;51.394;5.454;2023-03-01T13:34:51;3.03;;;2.93;;
26820;SDS011;37186;51.394;5.454;2023-03-01T13:38:36;3.30;;;3.20;;
26820;SDS011;37186;51.394;5.454;2023-03-01T13:44:38;2.87;;;2.77;;
26820;SDS011;37186;51.394;5.454;2023-03-01T13:47:39;2.93;;;2.83;;
26820;SDS011;37186;51.394;5.454;2023-03-01T13:50:46;3.07;;;2.97;;
26820;SDS011;37186;51.394;5.454;2023-03-01T13:53:50;2.93;;;2.83;;
26820;SDS011;37186;51.394;5.454;2023-03-01T13:56:52;3.00;;;2.90;;
26820;SDS011;37186;51.394;5.454;2023-03-01T13:59:54;3.00;;;2.90;;
26820;SDS011;37186;51.394;5.454;2023-03-01T14:03:14;3.10;;;3.00;;
26820;SDS011;37186;51.394;5.454;2023-03-01T14:06:20;3.20;;;3.10;;
26820;SDS011;37186;51.394;5.454;2023-03-01T14:09:23;2.97;;;2.87;;
26820;SDS011;37186;51.394;5.454;2023-03-01T14:15:54;3.10;;;3.00;;
26820;SDS011;37186;51.394;5.454;2023-03-01T14:19:16;3.37;;;3.27;;
26820;SDS011;37186;51.394;5.454;2023-03-01T14:22:22;3.67;;;3.57;;
26820;SDS011;37186;51.394;5.454;2023-03-01T14:25:26;3.90;;;3.80;;
26820;SDS011;37186;51.394;5.454;2023-03-01T14:28:30;3.63;;;3.53;;
26820;SDS011;37186;51.394;5.454;2023-03-01T14:31:38;3.30;;;3.20;;
26820;SDS011;37186;51.394;5.454;2023-03-01T14:34:43;3.33;;;3.23;;
26820;SDS011;37186;51.394;5.454;2023-03-01T14:37:45;3.37;;;3.27;;
26820;SDS011;37186;51.394;5.454;2023-03-01T14:40:45;3.53;;;3.43;;
26820;SDS011;37186;51.394;5.454;2023-03-01T14:43:57;3.30;;;3.20;;
26820;SDS011;37186;51.394;5.454;2023-03-01T14:47:00;3.13;;;3.03;;
26820;SDS011;37186;51.394;5.454;2023-03-01T14:50:05;3.23;;;3.13;;
26820;SDS011;37186;51.394;5.454;2023-03-01T14:53:25;3.20;;;3.10;;
26820;SDS011;37186;51.394;5.454;2023-03-01T14:56:29;3.40;;;3.30;;
26820;SDS011;37186;51.394;5.454;2023-03-01T14:59:44;3.50;;;3.40;;
26820;SDS011;37186;51.394;5.454;2023-03-01T15:02:46;3.47;;;3.37;;
26820;SDS011;37186;51.394;5.454;2023-03-01T15:05:48;3.33;;;3.23;;
26820;SDS011;37186;51.394;5.454;2023-03-01T15:08:50;3.07;;;2.97;;
26820;SDS011;37186;51.394;5.454;2023-03-01T15:11:52;3.10;;;3.00;;
26820;SDS011;37186;51.394;5.454;2023-03-01T15:14:53;2.90;;;2.80;;
26820;SDS011;37186;51.394;5.454;2023-03-01T15:17:55;2.80;;;2.70;;
26820;SDS011;37186;51.394;5.454;2023-03-01T15:21:06;2.87;;;2.77;;
26820;SDS011;37186;51.394;5.454;2023-03-01T15:27:20;3.47;;;3.37;;
26820;SDS011;37186;51.394;5.454;2023-03-01T15:30:23;3.50;;;3.40;;
26820;SDS011;37186;51.394;5.454;2023-03-01T15:33:33;3.43;;;3.33;;
26820;SDS011;37186;51.394;5.454;2023-03-01T15:36:40;3.47;;;3.37;;
26820;SDS011;37186;51.394;5.454;2023-03-01T15:39:54;3.23;;;3.13;;
26820;SDS011;37186;51.394;5.454;2023-03-01T15:42:57;3.10;;;3.00;;
26820;SDS011;37186;51.394;5.454;2023-03-01T15:45:58;3.27;;;3.17;;
26820;SDS011;37186;51.394;5.454;2023-03-01T15:49:17;3.00;;;2.90;;
26820;SDS011;37186;51.394;5.454;2023-03-01T15:52:29;2.90;;;2.80;;
26820;SDS011;37186;51.394;5.454;2023-03-01T15:55:36;3.10;;;3.00;;
26820;SDS011;37186;51.394;5.454;2023-03-01T15:58:37;3.20;;;3.10;;
26820;SDS011;37186;51.394;5.454;2023-03-01T16:01:38;3.65;;;3.55;;
26820;SDS011;37186;51.394;5.454;2023-03-01T16:04:39;3.57;;;3.47;;
26820;SDS011;37186;51.394;5.454;2023-03-01T16:07:39;3.70;;;3.60;;
26820;SDS011;37186;51.394;5.454;2023-03-01T16:10:41;4.70;;;4.60;;
26820;SDS011;37186;51.394;5.454;2023-03-01T16:13:44;3.93;;;3.83;;
26820;SDS011;37186;51.394;5.454;2023-03-01T16:16:45;3.85;;;3.75;;
26820;SDS011;37186;51.394;5.454;2023-03-01T16:19:47;3.60;;;3.50;;
26820;SDS011;37186;51.394;5.454;2023-03-01T16:22:48;3.23;;;3.13;;
26820;SDS011;37186;51.394;5.454;2023-03-01T16:25:49;3.73;;;3.63;;
26820;SDS011;37186;51.394;5.454;2023-03-01T16:28:49;3.90;;;3.80;;
26820;SDS011;37186;51.394;5.454;2023-03-01T16:31:50;4.60;;;4.50;;
26820;SDS011;37186;51.394;5.454;2023-03-01T16:34:50;4.47;;;4.37;;
26820;SDS011;37186;51.394;5.454;2023-03-01T16:37:51;4.30;;;4.20;;
26820;SDS011;37186;51.394;5.454;2023-03-01T16:40:53;4.27;;;4.17;;
26820;SDS011;37186;51.394;5.454;2023-03-01T16:43:54;4.90;;;4.80;;
26820;SDS011;37186;51.394;5.454;2023-03-01T16:46:54;4.60;;;4.50;;
26820;SDS011;37186;51.394;5.454;2023-03-01T16:49:55;4.93;;;4.83;;
26820;SDS011;37186;51.394;5.454;2023-03-01T16:52:56;4.47;;;4.37;;
26820;SDS011;37186;51.394;5.454;2023-03-01T16:55:56;4.30;;;4.20;;
26820;SDS011;37186;51.394;5.454;2023-03-01T16:58:58;3.83;;;3.73;;
26820;SDS011;37186;51.394;5.454;2023-03-01T17:01:59;3.20;;;3.10;;
26820;SDS011;37186;51.394;5.454;2023-03-01T17:04:59;3.13;;;3.03;;
26820;SDS011;37186;51.394;5.454;2023-03-01T17:08:00;2.93;;;2.83;;
26820;SDS011;37186;51.394;5.454;2023-03-01T17:11:19;2.87;;;2.77;;
26820;SDS011;37186;51.394;5.454;2023-03-01T17:14:20;3.10;;;3.00;;
26820;SDS011;37186;51.394;5.454;2023-03-01T17:17:21;3.10;;;3.00;;
26820;SDS011;37186;51.394;5.454;2023-03-01T17:20:21;2.83;;;2.73;;
26820;SDS011;37186;51.394;5.454;2023-03-01T17:23:22;2.90;;;2.80;;
26820;SDS011;37186;51.394;5.454;2023-03-01T17:26:22;2.80;;;2.70;;
26820;SDS011;37186;51.394;5.454;2023-03-01T17:29:23;2.93;;;2.83;;
26820;SDS011;37186;51.394;5.454;2023-03-01T17:32:23;2.90;;;2.80;;
26820;SDS011;37186;51.394;5.454;2023-03-01T17:35:24;2.77;;;2.70;;
26820;SDS011;37186;51.394;5.454;2023-03-01T17:38:25;2.60;;;2.60;;
26820;SDS011;37186;51.394;5.454;2023-03-01T17:41:26;2.50;;;2.50;;
26820;SDS011;37186;51.394;5.454;2023-03-01T17:44:27;2.40;;;2.40;;
26820;SDS011;37186;51.394;5.454;2023-03-01T17:47:28;2.50;;;2.50;;
26820;SDS011;37186;51.394;5.454;2023-03-01T17:50:28;2.40;;;2.40;;
26820;SDS011;37186;51.394;5.454;2023-03-01T17:53:29;2.50;;;2.50;;
26820;SDS011;37186;51.394;5.454;2023-03-01T17:56:29;2.50;;;2.50;;
26820;SDS011;37186;51.394;5.454;2023-03-01T17:59:36;2.60;;;2.60;;
26820;SDS011;37186;51.394;5.454;2023-03-01T18:02:37;2.70;;;2.70;;
26820;SDS011;37186;51.394;5.454;2023-03-01T18:05:37;2.83;;;2.73;;
26820;SDS011;37186;51.394;5.454;2023-03-01T18:08:38;2.90;;;2.80;;
26820;SDS011;37186;51.394;5.454;2023-03-01T18:11:38;2.90;;;2.80;;
26820;SDS011;37186;51.394;5.454;2023-03-01T18:14:41;2.77;;;2.73;;
26820;SDS011;37186;51.394;5.454;2023-03-01T18:17:41;2.63;;;2.63;;
26820;SDS011;37186;51.394;5.454;2023-03-01T18:20:42;2.50;;;2.50;;
26820;SDS011;37186;51.394;5.454;2023-03-01T18:23:42;2.60;;;2.60;;
26820;SDS011;37186;51.394;5.454;2023-03-01T18:26:43;2.67;;;2.67;;
26820;SDS011;37186;51.394;5.454;2023-03-01T18:29:43;2.77;;;2.70;;
26820;SDS011;37186;51.394;5.454;2023-03-01T18:32:44;2.40;;;2.40;;
26820;SDS011;37186;51.394;5.454;2023-03-01T18:35:44;2.37;;;2.37;;
26820;SDS011;37186;51.394;5.454;2023-03-01T18:38:45;2.50;;;2.50;;
26820;SDS011;37186;51.394;5.454;2023-03-01T18:41:47;2.40;;;2.40;;
26820;SDS011;37186;51.394;5.454;2023-03-01T18:44:48;2.47;;;2.47;;
26820;SDS011;37186;51.394;5.454;2023-03-01T18:47:48;2.50;;;2.50;;
26820;SDS011;37186;51.394;5.454;2023-03-01T18:50:49;2.47;;;2.47;;
26820;SDS011;37186;51.394;5.454;2023-03-01T18:53:50;2.43;;;2.43;;
26820;SDS011;37186;51.394;5.454;2023-03-01T18:56:50;2.40;;;2.40;;
26820;SDS011;37186;51.394;5.454;2023-03-01T18:59:51;2.40;;;2.40;;
26820;SDS011;37186;51.394;5.454;2023-03-01T19:02:51;2.37;;;2.37;;
26820;SDS011;37186;51.394;5.454;2023-03-01T19:05:52;2.33;;;2.33;;
26820;SDS011;37186;51.394;5.454;2023-03-01T19:08:52;2.40;;;2.40;;
26820;SDS011;37186;51.394;5.454;2023-03-01T19:11:53;2.70;;;2.70;;
26820;SDS011;37186;51.394;5.454;2023-03-01T19:14:57;2.50;;;2.50;;
26820;SDS011;37186;51.394;5.454;2023-03-01T19:17:58;2.40;;;2.40;;
26820;SDS011;37186;51.394;5.454;2023-03-01T19:21:01;2.40;;;2.40;;
26820;SDS011;37186;51.394;5.454;2023-03-01T19:24:03;2.30;;;2.30;;
26820;SDS011;37186;51.394;5.454;2023-03-01T19:27:04;2.40;;;2.40;;
26820;SDS011;37186;51.394;5.454;2023-03-01T19:30:04;2.30;;;2.30;;
26820;SDS011;37186;51.394;5.454;2023-03-01T19:33:06;2.30;;;2.30;;
26820;SDS011;37186;51.394;5.454;2023-03-01T19:36:07;2.30;;;2.30;;
26820;SDS011;37186;51.394;5.454;2023-03-01T19:39:09;2.40;;;2.40;;
26820;SDS011;37186;51.394;5.454;2023-03-01T19:42:12;2.40;;;2.40;;
26820;SDS011;37186;51.394;5.454;2023-03-01T19:45:12;2.20;;;2.20;;
26820;SDS011;37186;51.394;5.454;2023-03-01T19:48:13;2.20;;;2.20;;
26820;SDS011;37186;51.394;5.454;2023-03-01T19:51:14;2.23;;;2.23;;